Time;durP1;ratioP1;P1;durP2;ratioP2;P2;SDS_P1;SDS_P2;PMS_P1;PMS_P2;Temp;Humidity;BMP_temperature;BMP_pressure;BME280_temperature;BME280_humidity;BME280_pressure;Samples;Min_cycle;Max_cycle;Signal;HPM_P1;HPM_P2
2021/09/30 00:00:51;;;;;;;2.37;2.17;;;10.50;99.90;;;;;;5039212;28;20195;-52
2021/09/30 00:03:18;;;;;;;3.40;2.13;;;10.50;99.90;;;;;;5043147;28;20213;-51
2021/09/30 00:05:44;;;;;;;4.73;1.70;;;10.50;99.90;;;;;;5031178;28;20192;-53
2021/09/30 00:08:11;;;;;;;4.37;1.90;;;10.50;99.90;;;;;;5042756;28;20730;-53
2021/09/30 00:10:42;;;;;;;7.70;1.80;;;10.50;99.90;;;;;;5030650;28;20203;-56
2021/09/30 00:13:22;;;;;;;3.43;1.80;;;10.40;99.90;;;;;;5042174;28;20218;-52
2021/09/30 00:16:05;;;;;;;4.67;1.73;;;10.40;99.90;;;;;;5039051;28;20886;-54
2021/09/30 00:35:16;;;;;;;1.97;1.87;;;10.50;99.90;;;;;;5038074;28;20207;-55
2021/09/30 00:40:31;;;;;;;4.93;2.20;;;10.50;99.90;;;;;;5044310;28;20770;-56
2021/09/30 00:45:51;;;;;;;3.10;2.30;;;10.50;99.90;;;;;;5038587;28;20206;-56
2021/09/30 00:48:40;;;;;;;3.93;1.80;;;10.50;99.90;;;;;;5046011;28;20238;-49
2021/09/30 00:51:14;;;;;;;4.00;2.00;;;10.50;99.90;;;;;;5034624;28;20195;-50
2021/09/30 01:23:20;;;;;;;7.93;2.33;;;10.70;99.90;;;;;;5033834;28;20236;-56
2021/09/30 02:19:56;;;;;;;4.70;1.00;;;10.60;99.90;;;;;;5026874;28;20624;-58
2021/09/30 02:22:39;;;;;;;4.27;1.07;;;10.70;99.90;;;;;;5036709;28;20203;-51
2021/09/30 02:28:12;;;;;;;4.93;1.20;;;10.60;99.90;;;;;;5021839;28;20218;-54
2021/09/30 02:31:07;;;;;;;5.60;1.10;;;10.60;99.90;;;;;;5009034;28;20214;-54
2021/09/30 02:59:05;;;;;;;5.30;0.90;;;10.50;99.90;;;;;;5034884;28;20245;-55
2021/09/30 03:01:33;;;;;;;9.20;1.60;;;10.50;99.90;;;;;;5029697;28;20217;-58
2021/09/30 03:04:02;;;;;;;6.87;1.20;;;10.50;99.90;;;;;;5018411;28;20277;-52
2021/09/30 03:06:29;;;;;;;4.77;1.17;;;10.50;99.90;;;;;;5042532;28;20564;-56
2021/09/30 03:08:59;;;;;;;5.50;1.00;;;10.50;99.90;;;;;;5039212;28;20223;-54
2021/09/30 03:11:28;;;;;;;4.37;0.80;;;10.50;99.90;;;;;;5041699;28;20226;-55
2021/09/30 03:13:57;;;;;;;8.50;1.10;;;10.50;99.90;;;;;;5015558;28;20203;-55
2021/09/30 03:16:28;;;;;;;4.80;1.20;;;10.50;99.90;;;;;;5037925;28;20711;-52
2021/09/30 03:19:01;;;;;;;7.43;1.43;;;10.50;99.90;;;;;;5016365;28;20393;-54
2021/09/30 03:24:19;;;;;;;4.50;1.03;;;10.50;99.90;;;;;;5043515;28;20199;-52
2021/09/30 03:26:47;;;;;;;7.70;1.40;;;10.40;99.90;;;;;;5021198;28;20832;-50
2021/09/30 03:29:15;;;;;;;6.70;1.10;;;10.50;99.90;;;;;;5025253;28;20231;-55
2021/09/30 03:31:44;;;;;;;1.23;0.90;;;10.50;99.90;;;;;;5033356;28;20227;-52
2021/09/30 03:34:34;;;;;;;4.63;1.03;;;10.50;99.90;;;;;;5028420;28;20215;-56
2021/09/30 03:37:02;;;;;;;3.70;0.77;;;10.40;99.90;;;;;;5028625;28;20203;-55
2021/09/30 03:39:32;;;;;;;5.70;0.73;;;10.40;99.90;;;;;;5040521;28;20268;-57
2021/09/30 03:41:59;;;;;;;9.03;1.10;;;10.40;99.90;;;;;;5039209;28;20234;-51
2021/09/30 03:44:33;;;;;;;3.47;0.60;;;10.40;99.90;;;;;;5026639;28;20594;-57
2021/09/30 03:47:00;;;;;;;4.93;0.90;;;10.40;99.90;;;;;;5028860;28;20274;-52
2021/09/30 03:49:38;;;;;;;6.20;0.87;;;10.40;99.90;;;;;;5018471;28;20632;-57
2021/09/30 03:52:11;;;;;;;5.53;1.50;;;10.40;99.90;;;;;;5032821;28;20231;-53
2021/09/30 03:54:44;;;;;;;2.97;0.83;;;10.40;99.90;;;;;;5038219;28;20703;-57
2021/09/30 03:57:22;;;;;;;3.97;1.23;;;10.30;99.90;;;;;;5041376;28;20210;-52
2021/09/30 03:59:48;;;;;;;2.70;0.73;;;10.30;99.90;;;;;;5023948;28;20302;-50
2021/09/30 04:02:26;;;;;;;6.80;1.23;;;10.30;99.90;;;;;;5036479;28;20279;-57
2021/09/30 04:04:52;;;;;;;6.93;1.10;;;10.30;99.90;;;;;;5023723;28;20489;-56
2021/09/30 04:07:19;;;;;;;3.03;1.13;;;10.30;99.90;;;;;;5042448;28;20207;-55
2021/09/30 04:09:47;;;;;;;6.37;2.10;;;10.30;99.90;;;;;;5038644;28;20963;-55
2021/09/30 04:12:14;;;;;;;4.23;1.00;;;10.30;99.90;;;;;;5041547;28;20292;-54
2021/09/30 04:14:42;;;;;;;3.77;0.93;;;10.30;99.90;;;;;;5025224;28;20637;-56
2021/09/30 04:17:09;;;;;;;7.77;1.47;;;10.30;99.90;;;;;;5036365;28;20214;-58
2021/09/30 04:19:38;;;;;;;4.80;0.87;;;10.30;99.90;;;;;;5025598;28;20245;-52
2021/09/30 04:22:05;;;;;;;5.07;1.60;;;10.30;99.90;;;;;;5038966;28;20217;-58
2021/09/30 04:24:32;;;;;;;4.40;1.43;;;10.30;99.90;;;;;;5035035;28;20203;-57
2021/09/30 04:27:01;;;;;;;7.90;2.30;;;10.30;99.90;;;;;;5039032;28;20303;-53
2021/09/30 04:29:28;;;;;;;9.67;2.03;;;10.30;99.90;;;;;;5027489;28;20645;-57
2021/09/30 04:31:55;;;;;;;2.53;0.90;;;10.30;99.90;;;;;;5028627;28;20985;-53
2021/09/30 04:34:22;;;;;;;4.67;1.20;;;10.30;99.90;;;;;;5041307;28;20213;-53
2021/09/30 04:36:49;;;;;;;7.30;1.63;;;10.30;99.90;;;;;;5011300;28;20209;-50
2021/09/30 04:39:16;;;;;;;4.60;1.30;;;10.30;99.90;;;;;;5042474;28;20219;-54
2021/09/30 04:41:44;;;;;;;6.10;1.20;;;10.30;99.90;;;;;;5037158;28;20204;-58
2021/09/30 04:44:13;;;;;;;4.43;1.80;;;10.30;99.90;;;;;;5030802;28;20209;-51
2021/09/30 04:46:41;;;;;;;7.17;1.87;;;10.30;99.90;;;;;;5030807;28;20563;-53
2021/09/30 04:49:28;;;;;;;7.70;1.67;;;10.30;99.90;;;;;;5042903;28;20231;-53
2021/09/30 04:51:54;;;;;;;7.20;1.30;;;10.30;99.90;;;;;;5013848;28;21033;-56
2021/09/30 04:54:21;;;;;;;6.67;1.20;;;10.30;99.90;;;;;;5028313;28;20195;-54
2021/09/30 04:56:47;;;;;;;5.87;1.27;;;10.30;99.90;;;;;;5038014;28;20199;-56
2021/09/30 04:59:26;;;;;;;4.80;1.43;;;10.30;99.90;;;;;;5040710;28;20219;-59
2021/09/30 05:02:11;;;;;;;3.23;1.33;;;10.30;99.90;;;;;;5040277;28;20284;-49
2021/09/30 05:04:38;;;;;;;7.67;1.70;;;10.30;99.90;;;;;;5033796;28;20215;-53
2021/09/30 05:07:06;;;;;;;5.40;1.40;;;10.30;99.90;;;;;;5027924;28;20664;-52
2021/09/30 05:09:33;;;;;;;6.37;1.50;;;10.40;99.90;;;;;;5043517;28;20783;-54
2021/09/30 05:12:03;;;;;;;6.13;1.90;;;10.30;99.90;;;;;;5042932;28;20207;-53
2021/09/30 05:14:36;;;;;;;6.03;1.30;;;10.30;99.90;;;;;;5037996;28;20277;-54
2021/09/30 05:17:03;;;;;;;5.47;1.50;;;10.30;99.90;;;;;;5025705;28;20874;-55
2021/09/30 05:19:38;;;;;;;4.33;1.40;;;10.30;99.90;;;;;;5034463;28;20250;-55
2021/09/30 05:22:06;;;;;;;9.37;1.43;;;10.30;99.90;;;;;;5015710;28;20204;-52
2021/09/30 05:24:32;;;;;;;4.80;1.40;;;10.30;99.90;;;;;;5032495;28;20602;-57
2021/09/30 05:27:00;;;;;;;8.10;1.70;;;10.30;99.90;;;;;;5034431;28;20382;-54
2021/09/30 05:29:27;;;;;;;4.40;1.33;;;10.30;99.90;;;;;;5042854;28;20227;-56
2021/09/30 05:32:12;;;;;;;2.03;1.03;;;10.30;99.90;;;;;;5034162;28;20207;-54
2021/09/30 05:34:59;;;;;;;6.03;1.20;;;10.20;99.90;;;;;;5034318;28;20204;-56
2021/09/30 05:37:32;;;;;;;2.90;1.27;;;10.20;99.90;;;;;;5035506;28;20203;-57
2021/09/30 05:39:59;;;;;;;5.03;1.50;;;10.20;99.90;;;;;;5021775;28;20219;-56
2021/09/30 05:42:26;;;;;;;6.87;1.87;;;10.20;99.90;;;;;;5040129;28;20708;-57
2021/09/30 05:44:57;;;;;;;6.60;1.57;;;10.20;99.90;;;;;;5034271;28;20288;-56
2021/09/30 05:47:25;;;;;;;4.17;1.47;;;10.20;99.90;;;;;;5041618;28;20607;-58
2021/09/30 05:49:52;;;;;;;12.47;1.73;;;10.20;99.90;;;;;;5042928;28;20836;-57
2021/09/30 05:52:37;;;;;;;4.70;1.60;;;10.20;99.90;;;;;;5044469;28;20207;-54
2021/09/30 05:55:14;;;;;;;4.20;1.10;;;10.20;99.90;;;;;;5010188;28;20278;-57
2021/09/30 05:57:43;;;;;;;14.83;3.53;;;10.20;99.90;;;;;;5033400;28;20205;-52
2021/09/30 06:00:15;;;;;;;7.10;1.80;;;10.20;99.90;;;;;;5045403;28;20204;-57
2021/09/30 06:11:25;;;;;;;11.30;1.53;;;10.20;99.90;;;;;;5033987;28;20245;-55
2021/09/30 06:13:57;;;;;;;3.47;1.00;;;10.10;99.90;;;;;;5041454;28;20283;-56
2021/09/30 06:16:26;;;;;;;2.17;0.70;;;10.20;99.90;;;;;;5044331;28;20195;-56
2021/09/30 06:19:03;;;;;;;5.00;1.00;;;10.20;99.90;;;;;;5036767;28;20215;-53
2021/09/30 06:21:33;;;;;;;5.27;1.60;;;10.20;99.90;;;;;;5023896;28;20222;-61
2021/09/30 06:23:59;;;;;;;3.70;1.23;;;10.20;99.90;;;;;;5025899;28;20246;-52
2021/09/30 06:26:28;;;;;;;4.73;1.47;;;10.30;99.90;;;;;;5033484;28;20290;-58
2021/09/30 06:29:13;;;;;;;5.83;1.20;;;10.30;99.90;;;;;;5042472;28;20743;-52
2021/09/30 06:31:40;;;;;;;5.07;1.10;;;10.40;99.90;;;;;;5033484;28;20302;-58
2021/09/30 06:34:27;;;;;;;4.60;1.00;;;10.40;99.90;;;;;;5044036;28;20333;-60
2021/09/30 06:37:03;;;;;;;3.03;1.07;;;10.40;99.90;;;;;;5029836;28;20273;-54
2021/09/30 06:39:30;;;;;;;8.77;1.90;;;10.50;99.90;;;;;;5022028;28;20223;-58
2021/09/30 06:41:57;;;;;;;7.60;1.47;;;10.50;99.90;;;;;;5041494;28;20192;-53
2021/09/30 06:44:49;;;;;;;4.30;0.90;;;10.60;99.90;;;;;;5037581;28;20203;-54
2021/09/30 06:47:37;;;;;;;5.93;1.13;;;10.70;99.90;;;;;;5038851;28;20206;-58
2021/09/30 06:50:14;;;;;;;3.30;1.33;;;10.70;99.90;;;;;;5025693;28;20221;-54
2021/09/30 06:52:53;;;;;;;3.57;1.20;;;10.70;99.90;;;;;;5040592;28;20218;-53
2021/09/30 06:55:42;;;;;;;2.60;0.97;;;10.70;99.90;;;;;;5018327;28;20244;-59
2021/09/30 06:58:27;;;;;;;3.40;0.93;;;10.70;99.90;;;;;;5042682;28;20308;-59
2021/09/30 07:01:23;;;;;;;4.57;1.47;;;10.80;99.90;;;;;;5020227;28;20215;-53
2021/09/30 07:04:08;;;;;;;5.63;1.93;;;10.80;99.90;;;;;;5036127;28;20322;-53
2021/09/30 07:06:50;;;;;;;5.10;2.63;;;10.80;99.90;;;;;;5026931;28;20226;-55
2021/09/30 07:09:18;;;;;;;5.93;1.43;;;10.80;99.90;;;;;;5043361;28;20227;-54
2021/09/30 07:11:44;;;;;;;2.27;1.40;;;10.80;99.90;;;;;;5015052;28;20249;-53
2021/09/30 07:14:11;;;;;;;2.77;1.20;;;10.90;99.90;;;;;;5045432;28;20545;-55
2021/09/30 07:16:38;;;;;;;9.20;2.23;;;10.90;99.90;;;;;;5042124;28;20206;-57
2021/09/30 07:19:07;;;;;;;4.07;1.40;;;10.90;99.90;;;;;;5037208;28;20248;-60
2021/09/30 07:21:33;;;;;;;3.57;0.90;;;10.90;99.90;;;;;;5043474;28;20314;-54
2021/09/30 07:24:01;;;;;;;5.73;1.70;;;11.00;99.90;;;;;;5043546;28;20202;-57
2021/09/30 07:26:28;;;;;;;2.83;1.83;;;11.00;99.90;;;;;;5031123;28;20211;-55
2021/09/30 07:28:54;;;;;;;4.47;0.90;;;11.00;99.90;;;;;;5041093;28;20227;-59
2021/09/30 07:31:21;;;;;;;2.87;1.67;;;11.10;99.90;;;;;;5044840;28;20215;-60
2021/09/30 07:33:48;;;;;;;2.33;1.50;;;11.10;99.90;;;;;;5041067;28;20195;-57
2021/09/30 07:36:17;;;;;;;2.20;0.80;;;11.10;99.90;;;;;;5037601;28;20610;-57
2021/09/30 07:38:43;;;;;;;7.00;1.77;;;11.10;99.90;;;;;;5041131;28;20242;-55
2021/09/30 07:41:11;;;;;;;4.50;1.23;;;11.10;99.90;;;;;;5045410;28;20194;-60
2021/09/30 07:43:38;;;;;;;7.23;2.10;;;11.10;99.90;;;;;;5028554;28;20199;-54
2021/09/30 07:46:04;;;;;;;2.93;0.77;;;11.20;99.90;;;;;;5042799;28;20199;-52
2021/09/30 07:48:31;;;;;;;2.63;0.77;;;11.30;99.90;;;;;;5041308;28;20219;-57
2021/09/30 07:50:58;;;;;;;5.50;1.20;;;11.40;99.90;;;;;;5032761;28;20215;-49
2021/09/30 07:53:25;;;;;;;6.57;0.73;;;11.50;99.90;;;;;;5042502;28;20292;-58
2021/09/30 07:55:52;;;;;;;3.33;1.57;;;11.50;99.90;;;;;;5039342;28;20892;-51
2021/09/30 07:58:20;;;;;;;2.13;1.00;;;11.50;99.90;;;;;;5029079;28;20258;-52
2021/09/30 08:00:47;;;;;;;2.53;0.80;;;11.50;99.90;;;;;;5038637;28;20906;-51
2021/09/30 08:03:14;;;;;;;4.00;1.07;;;11.60;99.90;;;;;;5044748;28;20214;-53
2021/09/30 08:05:40;;;;;;;3.00;1.10;;;11.60;99.90;;;;;;5035964;28;20543;-52
2021/09/30 08:08:09;;;;;;;3.37;0.70;;;11.60;99.90;;;;;;5042498;28;20234;-58
2021/09/30 08:10:37;;;;;;;3.97;1.60;;;11.60;99.90;;;;;;5042372;28;20772;-52
2021/09/30 08:13:04;;;;;;;4.07;1.23;;;11.70;99.90;;;;;;5030310;28;20218;-54
2021/09/30 08:15:32;;;;;;;4.33;0.90;;;11.70;99.90;;;;;;5043210;28;20191;-53
2021/09/30 08:17:59;;;;;;;4.53;1.00;;;11.70;99.90;;;;;;5042360;28;20207;-58
2021/09/30 08:20:26;;;;;;;3.57;0.90;;;11.80;99.90;;;;;;5044042;28;20591;-54
2021/09/30 08:22:53;;;;;;;3.23;0.70;;;11.90;99.90;;;;;;5032951;28;20209;-56
2021/09/30 08:25:19;;;;;;;2.23;0.80;;;12.00;99.90;;;;;;5044802;28;20700;-57
2021/09/30 08:27:46;;;;;;;3.27;0.77;;;12.00;99.90;;;;;;5038888;28;20196;-52
2021/09/30 08:30:13;;;;;;;0.87;0.40;;;12.00;99.90;;;;;;5028596;28;20238;-54
2021/09/30 08:32:41;;;;;;;3.50;0.93;;;12.00;99.90;;;;;;5039464;28;20574;-57
2021/09/30 08:35:08;;;;;;;5.00;0.90;;;12.00;99.90;;;;;;5042493;28;20639;-55
2021/09/30 08:37:36;;;;;;;1.50;0.63;;;12.00;99.90;;;;;;5036845;28;20630;-57
2021/09/30 08:40:04;;;;;;;3.37;0.73;;;11.90;99.90;;;;;;5040772;28;20238;-54
2021/09/30 08:42:31;;;;;;;4.30;0.70;;;12.00;99.90;;;;;;5041377;28;20210;-54
2021/09/30 08:44:58;;;;;;;4.97;1.20;;;12.10;99.90;;;;;;5031958;28;20207;-58
2021/09/30 08:47:25;;;;;;;3.87;1.00;;;12.20;99.90;;;;;;5047608;28;20770;-55
2021/09/30 08:49:53;;;;;;;7.43;1.43;;;12.20;99.90;;;;;;5044279;28;20215;-56
2021/09/30 08:52:20;;;;;;;2.00;1.03;;;12.30;99.90;;;;;;5047852;28;20204;-56
2021/09/30 08:54:46;;;;;;;4.17;1.00;;;12.40;99.90;;;;;;5036542;28;20241;-54
2021/09/30 08:57:13;;;;;;;5.07;0.77;;;12.40;99.90;;;;;;5047474;28;20203;-57
2021/09/30 08:59:40;;;;;;;3.67;0.97;;;12.50;99.90;;;;;;5033875;28;20223;-55
2021/09/30 09:02:10;;;;;;;5.23;0.90;;;12.60;99.90;;;;;;5041062;28;20668;-54
2021/09/30 09:04:50;;;;;;;3.07;1.20;;;12.80;99.90;;;;;;5043435;28;20211;-56
2021/09/30 09:07:23;;;;;;;5.30;1.37;;;12.80;99.90;;;;;;5045675;28;20211;-52
2021/09/30 09:09:50;;;;;;;3.03;1.27;;;12.90;99.90;;;;;;5032698;28;20928;-52
2021/09/30 09:12:20;;;;;;;4.33;0.77;;;13.00;99.90;;;;;;5036327;28;20209;-53
2021/09/30 09:14:47;;;;;;;5.03;0.90;;;13.10;99.90;;;;;;5028035;28;20270;-54
2021/09/30 09:17:16;;;;;;;4.07;0.83;;;13.30;99.90;;;;;;5045099;28;20199;-52
2021/09/30 09:19:45;;;;;;;2.40;1.23;;;13.30;99.90;;;;;;5041449;28;20214;-53
2021/09/30 09:22:15;;;;;;;1.83;0.97;;;13.30;99.90;;;;;;5045603;28;20211;-54
2021/09/30 09:25:02;;;;;;;2.90;1.20;;;13.40;99.90;;;;;;5035077;28;20211;-56
2021/09/30 09:27:48;;;;;;;2.70;0.87;;;13.40;99.90;;;;;;5038490;28;20199;-55
2021/09/30 09:30:26;;;;;;;4.27;1.00;;;13.50;99.90;;;;;;5045563;28;20218;-52
2021/09/30 09:33:00;;;;;;;2.40;0.80;;;13.60;99.90;;;;;;5030882;28;20207;-52
2021/09/30 09:35:27;;;;;;;3.90;0.97;;;13.70;99.90;;;;;;5044578;28;20206;-56
2021/09/30 09:38:01;;;;;;;4.87;1.07;;;13.80;99.90;;;;;;5042101;28;20953;-53
2021/09/30 09:40:29;;;;;;;3.87;0.80;;;13.90;99.90;;;;;;5036938;28;20594;-54
2021/09/30 09:42:56;;;;;;;3.07;0.83;;;14.00;99.90;;;;;;5042482;28;20916;-53
2021/09/30 09:45:22;;;;;;;6.57;1.53;;;14.00;99.90;;;;;;5045225;28;20214;-53
2021/09/30 09:47:49;;;;;;;7.60;1.00;;;14.10;99.90;;;;;;5027104;28;20204;-53
2021/09/30 09:50:18;;;;;;;3.97;0.80;;;14.20;99.90;;;;;;5044262;28;20230;-54
2021/09/30 09:52:50;;;;;;;4.77;1.73;;;14.10;99.90;;;;;;5040353;28;20211;-51
2021/09/30 09:55:18;;;;;;;6.60;1.20;;;14.20;99.90;;;;;;5038821;28;20238;-55
2021/09/30 09:58:04;;;;;;;5.20;1.50;;;14.30;99.90;;;;;;5031816;28;20194;-54
2021/09/30 10:00:31;;;;;;;4.63;1.20;;;14.30;99.90;;;;;;5039860;28;20195;-54
2021/09/30 10:03:10;;;;;;;3.67;1.20;;;14.30;99.90;;;;;;5028993;28;20807;-54
2021/09/30 10:05:37;;;;;;;6.97;1.20;;;14.20;99.90;;;;;;5039825;28;20206;-55
2021/09/30 10:08:05;;;;;;;6.20;1.00;;;14.10;99.90;;;;;;5043493;28;20202;-54
2021/09/30 10:10:32;;;;;;;4.63;1.23;;;13.90;99.90;;;;;;5041782;28;20230;-56
2021/09/30 10:12:59;;;;;;;3.20;1.40;;;13.90;99.90;;;;;;5037576;28;20936;-53
2021/09/30 10:15:27;;;;;;;4.53;1.83;;;14.00;99.90;;;;;;5044275;28;20195;-55
2021/09/30 10:17:54;;;;;;;8.23;1.67;;;14.00;99.90;;;;;;5026943;28;20203;-51
2021/09/30 10:20:21;;;;;;;3.20;1.10;;;14.00;99.90;;;;;;5044267;28;20203;-55
2021/09/30 10:22:51;;;;;;;5.77;1.73;;;14.10;99.90;;;;;;5040199;28;20191;-54
2021/09/30 10:25:18;;;;;;;8.53;1.83;;;14.20;99.90;;;;;;5044750;28;20214;-53
2021/09/30 10:27:46;;;;;;;2.93;1.23;;;14.20;99.90;;;;;;5031679;28;20202;-54
2021/09/30 10:30:32;;;;;;;6.83;2.70;;;14.30;99.90;;;;;;5044255;28;20223;-54
2021/09/30 10:33:00;;;;;;;6.57;1.50;;;14.30;99.90;;;;;;5022389;28;20290;-55
2021/09/30 10:35:34;;;;;;;5.23;2.00;;;14.30;99.90;;;;;;5043080;28;20199;-53
2021/09/30 10:38:19;;;;;;;5.50;1.37;;;14.30;99.90;;;;;;5037043;28;20187;-55
2021/09/30 10:41:10;;;;;;;5.33;1.27;;;14.40;99.90;;;;;;5039840;28;20195;-55
2021/09/30 10:43:42;;;;;;;4.77;1.73;;;14.50;99.90;;;;;;5033935;28;20199;-54
2021/09/30 10:46:50;;;;;;;6.50;1.50;;;14.50;99.90;;;;;;5042058;28;20558;-57
2021/09/30 10:49:36;;;;;;;4.93;1.57;;;14.50;99.90;;;;;;5031912;28;20215;-56
2021/09/30 10:52:35;;;;;;;7.70;1.93;;;14.50;99.90;;;;;;5040883;28;20218;-57
2021/09/30 10:55:30;;;;;;;5.60;1.50;;;14.60;99.90;;;;;;5044119;28;20248;-56
2021/09/30 10:57:59;;;;;;;7.17;1.83;;;14.70;99.90;;;;;;5035971;28;20305;-57
2021/09/30 11:00:47;;;;;;;5.17;1.50;;;14.70;99.90;;;;;;5043796;28;20191;-57
2021/09/30 11:03:23;;;;;;;7.00;2.03;;;14.60;99.90;;;;;;5043762;28;20231;-53
2021/09/30 11:06:14;;;;;;;4.63;2.00;;;14.50;99.90;;;;;;5026505;28;20201;-54
2021/09/30 11:08:41;;;;;;;4.00;1.30;;;14.40;99.90;;;;;;5037328;28;20219;-56
2021/09/30 11:11:13;;;;;;;5.03;1.53;;;14.30;99.90;;;;;;5043329;28;20223;-50
2021/09/30 11:13:42;;;;;;;7.43;1.83;;;14.20;99.90;;;;;;5032757;28;20196;-54
2021/09/30 11:16:12;;;;;;;4.23;1.57;;;14.00;99.90;;;;;;5045446;28;20280;-57
2021/09/30 11:18:46;;;;;;;5.70;1.57;;;14.00;99.90;;;;;;5041986;28;20230;-53
2021/09/30 11:21:44;;;;;;;7.47;1.53;;;13.90;99.90;;;;;;5030915;28;20207;-56
2021/09/30 11:24:13;;;;;;;6.73;2.00;;;13.90;99.90;;;;;;5026229;28;20305;-54
2021/09/30 11:27:09;;;;;;;9.13;1.50;;;14.00;99.90;;;;;;5042093;28;20203;-55
2021/09/30 11:29:36;;;;;;;4.10;1.90;;;14.10;99.90;;;;;;5035183;28;20249;-53
2021/09/30 11:32:33;;;;;;;6.57;1.57;;;14.20;99.90;;;;;;5029249;28;20303;-50
2021/09/30 11:35:02;;;;;;;8.17;1.90;;;14.30;99.90;;;;;;5033968;28;20676;-49
2021/09/30 11:37:35;;;;;;;5.83;1.80;;;14.50;99.90;;;;;;5028197;28;20253;-55
2021/09/30 11:40:05;;;;;;;4.27;1.77;;;14.60;99.90;;;;;;5018334;28;20226;-54
2021/09/30 11:42:37;;;;;;;4.97;1.80;;;14.80;99.90;;;;;;5039327;28;20664;-53
2021/09/30 11:45:09;;;;;;;4.83;1.60;;;14.80;99.90;;;;;;5025322;28;20195;-56
2021/09/30 11:47:35;;;;;;;3.60;1.50;;;14.90;99.90;;;;;;5035834;28;20985;-55
2021/09/30 11:50:06;;;;;;;3.10;1.50;;;15.00;99.90;;;;;;5035842;28;20219;-56
2021/09/30 11:52:33;;;;;;;5.30;1.30;;;15.00;99.90;;;;;;5020045;28;20216;-55
2021/09/30 11:55:14;;;;;;;6.87;1.30;;;15.00;99.90;;;;;;5041996;28;20203;-55
2021/09/30 11:57:52;;;;;;;6.53;1.57;;;15.00;99.90;;;;;;5036862;28;20192;-56
2021/09/30 12:00:20;;;;;;;7.67;1.63;;;15.00;99.90;;;;;;5030373;28;20203;-50
2021/09/30 12:02:57;;;;;;;3.20;1.20;;;15.00;99.90;;;;;;5035878;28;20297;-55
2021/09/30 12:05:29;;;;;;;3.97;1.10;;;15.10;99.90;;;;;;5036226;28;20222;-55
2021/09/30 12:07:58;;;;;;;5.90;1.83;;;15.10;99.90;;;;;;5029754;28;20203;-54
2021/09/30 12:10:25;;;;;;;7.00;1.40;;;15.20;99.90;;;;;;5039572;28;20205;-54
2021/09/30 12:12:52;;;;;;;6.77;1.57;;;15.20;99.90;;;;;;5043258;28;20206;-54
2021/09/30 12:15:18;;;;;;;7.47;1.40;;;15.10;99.90;;;;;;5027885;28;21649;-55
2021/09/30 12:17:45;;;;;;;5.93;1.27;;;15.20;99.90;;;;;;5024652;28;20621;-50
2021/09/30 12:20:15;;;;;;;5.20;1.47;;;15.30;99.90;;;;;;5040966;28;20970;-55
2021/09/30 12:22:46;;;;;;;4.40;1.17;;;15.30;99.90;;;;;;5025921;28;20218;-50
2021/09/30 12:25:14;;;;;;;4.37;1.10;;;15.30;99.90;;;;;;5044333;28;20904;-56
2021/09/30 12:27:43;;;;;;;4.57;1.30;;;15.30;99.90;;;;;;5045500;28;20278;-55
2021/09/30 12:30:13;;;;;;;6.87;1.43;;;15.40;99.90;;;;;;5037237;28;20221;-54
2021/09/30 12:32:42;;;;;;;4.03;1.53;;;15.60;99.90;;;;;;5030161;28;20226;-57
2021/09/30 12:35:16;;;;;;;4.77;2.07;;;15.90;99.90;;;;;;5036170;28;20900;-53
2021/09/30 12:37:48;;;;;;;8.67;1.37;;;15.90;99.90;;;;;;5033958;28;20198;-57
2021/09/30 12:40:17;;;;;;;4.37;1.03;;;15.90;99.90;;;;;;5039889;28;20695;-52
2021/09/30 12:42:58;;;;;;;2.67;1.23;;;15.90;99.90;;;;;;5043235;28;20200;-54
2021/09/30 12:45:25;;;;;;;3.90;1.20;;;15.80;99.90;;;;;;5038895;28;20573;-51
2021/09/30 12:48:01;;;;;;;4.13;1.30;;;15.80;99.90;;;;;;5036358;28;20195;-57
2021/09/30 12:50:36;;;;;;;4.07;1.43;;;15.80;99.90;;;;;;5041516;28;20260;-51
2021/09/30 12:53:04;;;;;;;4.47;1.50;;;15.90;99.90;;;;;;5037264;28;20191;-50
2021/09/30 12:55:32;;;;;;;5.03;1.60;;;16.00;99.90;;;;;;5033098;28;20211;-54
2021/09/30 12:57:59;;;;;;;2.93;1.03;;;16.00;99.90;;;;;;5041722;28;20198;-50
2021/09/30 13:00:33;;;;;;;5.73;1.43;;;15.90;99.90;;;;;;5038459;28;20208;-48
2021/09/30 13:03:12;;;;;;;8.17;1.53;;;15.80;99.90;;;;;;5039223;28;20190;-53
2021/09/30 13:05:49;;;;;;;5.73;1.33;;;15.80;99.90;;;;;;5036255;28;20218;-57
2021/09/30 13:08:36;;;;;;;8.40;1.57;;;16.00;99.90;;;;;;5037995;28;20337;-56
2021/09/30 13:11:21;;;;;;;7.27;2.10;;;16.10;99.90;;;;;;5026211;28;20219;-50
2021/09/30 13:14:03;;;;;;;5.00;2.03;;;16.00;99.90;;;;;;5036367;28;20261;-57
2021/09/30 13:16:30;;;;;;;6.77;1.80;;;16.00;99.90;;;;;;5031475;28;20206;-49
2021/09/30 13:18:56;;;;;;;3.10;1.50;;;16.00;99.90;;;;;;5040435;28;20211;-50
2021/09/30 13:21:23;;;;;;;5.30;1.30;;;15.90;99.90;;;;;;5033673;28;20207;-48
2021/09/30 13:23:51;;;;;;;6.83;1.67;;;16.00;99.90;;;;;;5037518;28;20244;-59
2021/09/30 13:26:17;;;;;;;5.50;1.77;;;16.20;99.90;;;;;;5029961;28;20215;-50
2021/09/30 13:28:44;;;;;;;5.80;2.20;;;16.30;99.90;;;;;;5041442;28;20739;-57
2021/09/30 13:31:10;;;;;;;4.97;1.57;;;16.30;99.90;;;;;;5035999;28;20220;-54
2021/09/30 13:33:37;;;;;;;7.07;1.30;;;16.50;99.90;;;;;;5039001;28;20199;-59
2021/09/30 13:36:04;;;;;;;6.07;2.07;;;16.90;99.90;;;;;;5031345;28;20195;-53
2021/09/30 13:38:31;;;;;;;4.60;1.40;;;17.00;99.90;;;;;;5034464;28;20227;-48
2021/09/30 13:40:59;;;;;;;7.10;1.77;;;17.00;99.90;;;;;;5025623;28;20207;-49
2021/09/30 13:43:25;;;;;;;3.83;1.37;;;17.20;99.90;;;;;;5042081;28;20203;-52
2021/09/30 13:45:52;;;;;;;3.93;1.60;;;17.30;99.90;;;;;;5039661;28;20204;-59
2021/09/30 13:48:18;;;;;;;3.37;1.40;;;17.30;99.90;;;;;;5036328;28;20242;-49
2021/09/30 13:50:45;;;;;;;3.30;1.73;;;17.30;99.90;;;;;;5030829;28;20208;-54
2021/09/30 13:53:19;;;;;;;5.60;1.90;;;17.20;99.90;;;;;;5040135;28;20227;-52
2021/09/30 13:55:45;;;;;;;6.20;1.67;;;17.10;99.90;;;;;;5036864;28;20940;-52
2021/09/30 13:58:13;;;;;;;5.37;1.73;;;17.00;99.90;;;;;;5030639;28;20568;-53
2021/09/30 14:00:40;;;;;;;6.10;1.57;;;16.90;99.90;;;;;;5040700;28;20180;-51
2021/09/30 14:03:07;;;;;;;3.43;1.40;;;16.90;99.90;;;;;;5038222;28;20203;-54
2021/09/30 14:05:34;;;;;;;5.17;1.60;;;17.00;99.90;;;;;;5035077;28;20203;-52
2021/09/30 14:08:00;;;;;;;4.80;1.93;;;16.90;99.90;;;;;;5043805;28;20225;-53
2021/09/30 14:10:27;;;;;;;5.80;1.40;;;16.80;99.90;;;;;;5037332;28;20222;-52
2021/09/30 14:12:53;;;;;;;9.20;1.50;;;16.70;99.90;;;;;;5029501;28;20224;-54
2021/09/30 14:15:21;;;;;;;3.87;1.33;;;16.50;99.90;;;;;;5043810;28;20999;-54
2021/09/30 14:17:48;;;;;;;8.67;1.50;;;16.30;99.90;;;;;;5035096;28;20250;-55
2021/09/30 14:20:15;;;;;;;4.23;1.00;;;16.10;99.90;;;;;;5045042;28;20861;-51
2021/09/30 14:22:42;;;;;;;3.53;1.40;;;16.00;99.90;;;;;;5033292;28;20194;-52
2021/09/30 14:25:10;;;;;;;2.77;1.00;;;15.90;99.90;;;;;;5039304;28;20200;-52
2021/09/30 14:27:38;;;;;;;5.87;1.77;;;15.70;99.90;;;;;;5025859;28;20207;-51
2021/09/30 14:30:06;;;;;;;5.73;1.20;;;15.10;99.90;;;;;;5042498;28;20227;-51
2021/09/30 14:32:34;;;;;;;3.57;1.20;;;14.60;99.90;;;;;;5036549;28;20219;-56
2021/09/30 14:35:01;;;;;;;3.00;0.90;;;14.30;99.90;;;;;;5037645;28;20216;-52
2021/09/30 14:37:28;;;;;;;2.93;1.23;;;14.00;99.90;;;;;;5033917;28;20215;-53
2021/09/30 14:39:54;;;;;;;3.97;0.90;;;13.60;99.90;;;;;;5042713;28;20215;-49
2021/09/30 14:42:21;;;;;;;2.40;0.80;;;13.50;99.90;;;;;;5034860;28;20203;-54
2021/09/30 14:44:48;;;;;;;3.83;1.00;;;13.40;99.90;;;;;;5029522;28;20199;-50
2021/09/30 14:47:14;;;;;;;4.30;0.87;;;13.40;99.90;;;;;;5039397;28;20200;-55
2021/09/30 14:49:43;;;;;;;2.97;0.93;;;13.40;99.90;;;;;;5033833;28;20237;-55
2021/09/30 14:52:13;;;;;;;3.23;0.80;;;13.30;99.90;;;;;;5036641;28;20227;-52
2021/09/30 14:54:40;;;;;;;4.50;0.83;;;13.50;99.90;;;;;;5039876;28;20925;-51
2021/09/30 14:57:07;;;;;;;2.77;1.10;;;13.60;99.90;;;;;;5038598;28;20196;-50
2021/09/30 14:59:34;;;;;;;5.53;1.57;;;13.80;99.90;;;;;;5025794;28;20219;-53
2021/09/30 15:02:01;;;;;;;3.57;1.27;;;13.90;99.90;;;;;;5038826;28;20199;-52
2021/09/30 15:04:28;;;;;;;2.13;1.10;;;14.20;99.90;;;;;;5041479;28;20218;-54
2021/09/30 15:06:56;;;;;;;2.57;1.10;;;14.50;99.90;;;;;;5028047;28;20258;-51
2021/09/30 15:09:23;;;;;;;2.60;0.80;;;14.60;99.90;;;;;;5040921;28;20562;-52
2021/09/30 15:11:49;;;;;;;5.30;1.30;;;14.70;99.90;;;;;;5035554;28;21747;-50
2021/09/30 15:14:16;;;;;;;4.30;1.67;;;15.40;99.90;;;;;;5030120;28;20417;-51
2021/09/30 15:16:50;;;;;;;4.00;1.17;;;16.20;99.90;;;;;;5034694;28;20202;-50
2021/09/30 15:19:18;;;;;;;2.73;0.97;;;16.70;99.90;;;;;;5032528;28;20230;-51
2021/09/30 15:21:45;;;;;;;4.17;1.53;;;16.60;99.90;;;;;;5034824;28;20211;-53
2021/09/30 15:24:15;;;;;;;5.07;2.10;;;16.70;99.90;;;;;;5028649;28;20207;-58
2021/09/30 15:26:44;;;;;;;4.70;1.73;;;16.90;99.90;;;;;;5042152;28;20273;-51
2021/09/30 15:29:12;;;;;;;4.77;2.10;;;16.90;99.90;;;;;;5025732;28;20231;-59
2021/09/30 15:31:42;;;;;;;5.40;1.77;;;16.60;99.90;;;;;;5038181;28;20203;-48